createdAt,value
2023-11-25T00:00:49.880Z,88.09
2023-11-25T00:03:11.807Z,88.33
2023-11-25T00:05:33.629Z,87.69
2023-11-25T00:07:56.645Z,87.54
2023-11-25T00:10:19.766Z,86.91
2023-11-25T00:12:41.708Z,86.67
2023-11-25T00:15:04.343Z,86.11
2023-11-25T00:17:29.408Z,86.24
2023-11-25T00:19:51.662Z,85.91
2023-11-25T00:22:13.548Z,85.82
2023-11-25T00:24:36.938Z,86.03
2023-11-25T00:26:58.841Z,84.85
2023-11-25T00:29:20.716Z,85.14
2023-11-25T00:31:42.656Z,85.26
2023-11-25T00:34:05.336Z,85.50
2023-11-25T00:36:27.305Z,85.02
2023-11-25T00:38:49.183Z,85.23
2023-11-25T00:41:11.032Z,85.82
2023-11-25T00:43:33.360Z,85.75
2023-11-25T00:45:55.347Z,86.07
2023-11-25T00:48:17.427Z,85.72
2023-11-25T00:50:39.311Z,85.78
2023-11-25T00:53:01.429Z,84.80
2023-11-25T00:55:23.426Z,85.05
2023-11-25T00:57:45.300Z,84.79
2023-11-25T01:00:13.659Z,84.71
2023-11-25T01:02:36.469Z,83.95
2023-11-25T01:04:58.581Z,84.63
2023-11-25T01:07:20.467Z,84.63
2023-11-25T01:09:42.444Z,84.27
2023-11-25T01:12:04.628Z,84.08
2023-11-25T01:14:27.142Z,84.36
2023-11-25T01:16:51.551Z,84.79
2023-11-25T01:19:13.974Z,85.06
2023-11-25T01:21:35.844Z,84.97
2023-11-25T01:23:57.889Z,85.48
2023-11-25T01:26:20.066Z,85.54
2023-11-25T01:28:45.172Z,86.43
2023-11-25T01:31:07.692Z,86.20
2023-11-25T01:33:29.798Z,85.96
2023-11-25T01:35:51.719Z,86.52
2023-11-25T01:38:14.653Z,86.33
2023-11-25T01:40:38.315Z,86.36
2023-11-25T01:43:00.698Z,85.75
2023-11-25T01:45:22.636Z,86.14
2023-11-25T01:47:44.875Z,86.47
2023-11-25T01:50:08.214Z,86.09
2023-11-25T01:52:32.051Z,86.12
2023-11-25T01:54:54.364Z,85.86
2023-11-25T01:57:18.773Z,85.46
2023-11-25T01:59:41.053Z,85.59
2023-11-25T02:02:06.123Z,85.76
2023-11-25T02:04:28.255Z,86.08
2023-11-25T02:06:51.188Z,85.87
2023-11-25T02:09:14.123Z,85.64
2023-11-25T02:12:02.692Z,86.49
2023-11-25T02:14:28.711Z,86.46
2023-11-25T02:16:50.896Z,86.34
2023-11-25T02:19:13.286Z,86.13
2023-11-25T02:21:40.848Z,86.44
2023-11-25T02:24:02.785Z,85.97
2023-11-25T02:26:26.541Z,85.91
2023-11-25T02:28:48.473Z,86.25
2023-11-25T02:31:10.477Z,86.69
2023-11-25T02:33:37.732Z,86.52
2023-11-25T02:35:59.766Z,86.28
2023-11-25T02:38:21.709Z,86.14
2023-11-25T02:40:47.141Z,86.26
2023-11-25T02:43:09.047Z,86.27
2023-11-25T02:45:31.065Z,86.00
2023-11-25T02:47:53.344Z,86.25
2023-11-25T02:50:15.823Z,85.77
2023-11-25T02:52:38.178Z,86.71
2023-11-25T02:55:00.129Z,87.14
2023-11-25T02:57:22.032Z,87.09
2023-11-25T02:59:43.883Z,86.83
2023-11-25T03:02:11.064Z,86.66
2023-11-25T03:04:38.065Z,86.82
2023-11-25T03:07:05.621Z,86.48
2023-11-25T03:09:29.149Z,86.81
2023-11-25T03:11:51.389Z,86.62
2023-11-25T03:14:16.402Z,86.08
2023-11-25T03:16:38.523Z,86.28
2023-11-25T03:19:01.555Z,86.25
2023-11-25T03:21:23.646Z,86.45
2023-11-25T03:23:45.570Z,86.37
2023-11-25T03:26:11.131Z,85.84
2023-11-25T03:28:33.341Z,85.92
2023-11-25T03:30:55.454Z,86.31
2023-11-25T03:33:17.470Z,86.00
2023-11-25T03:35:39.416Z,85.90
2023-11-25T03:38:01.366Z,85.49
2023-11-25T03:40:23.444Z,85.82
2023-11-25T03:42:45.467Z,85.70
2023-11-25T03:45:11.025Z,85.93
2023-11-25T03:47:33.162Z,85.97
2023-11-25T03:49:55.050Z,85.91
2023-11-25T03:52:16.900Z,85.58
2023-11-25T03:54:39.484Z,85.42
2023-11-25T03:57:01.827Z,85.59
2023-11-25T03:59:23.754Z,85.07
2023-11-25T04:01:45.911Z,85.14
2023-11-25T04:04:07.928Z,84.99
2023-11-25T04:06:29.953Z,84.88
2023-11-25T04:08:51.896Z,85.26
2023-11-25T04:11:13.788Z,85.30
2023-11-25T04:13:35.741Z,85.85
2023-11-25T04:15:57.610Z,86.19
2023-11-25T04:18:19.508Z,86.17
2023-11-25T04:20:41.637Z,86.49
2023-11-25T04:23:08.101Z,86.92
2023-11-25T04:25:30.574Z,87.19
2023-11-25T04:27:52.696Z,87.08
2023-11-25T04:30:16.981Z,87.13
2023-11-25T04:32:44.242Z,86.22
2023-11-25T04:35:06.954Z,86.07
2023-11-25T04:37:28.849Z,86.06
2023-11-25T04:39:50.749Z,87.16
2023-11-25T04:42:12.630Z,86.63
2023-11-25T04:44:34.577Z,87.69
2023-11-25T04:46:56.575Z,87.96
2023-11-25T04:49:18.557Z,88.58
2023-11-25T04:51:40.491Z,87.89
2023-11-25T04:54:02.612Z,88.18
2023-11-25T04:56:24.498Z,88.45
2023-11-25T04:58:46.509Z,87.68
2023-11-25T05:01:08.550Z,87.77
2023-11-25T05:03:30.512Z,86.81
2023-11-25T05:05:52.413Z,86.70
2023-11-25T05:08:14.284Z,86.44
2023-11-25T05:10:36.218Z,87.06
2023-11-25T05:12:58.083Z,86.57
2023-11-25T05:15:20.042Z,86.58
2023-11-25T05:17:42.169Z,86.08
2023-11-25T05:20:05.614Z,86.02
2023-11-25T05:22:30.467Z,85.65
2023-11-25T05:24:52.453Z,85.20
2023-11-25T05:27:14.320Z,85.52
2023-11-25T05:29:36.309Z,85.89
2023-11-25T05:31:58.376Z,86.19
2023-11-25T05:34:21.378Z,86.67
2023-11-25T05:36:43.894Z,87.07
2023-11-25T05:39:08.332Z,86.21
2023-11-25T05:41:30.299Z,86.03
2023-11-25T05:43:52.264Z,85.88
2023-11-25T05:46:23.061Z,85.86
2023-11-25T05:48:44.992Z,85.36
2023-11-25T05:51:07.289Z,85.64
2023-11-25T05:53:29.312Z,85.71
2023-11-25T05:55:51.258Z,85.68
2023-11-25T05:58:14.297Z,85.88
2023-11-25T06:00:36.216Z,85.77
2023-11-25T06:02:58.098Z,85.74
2023-11-25T06:05:20.043Z,85.91
2023-11-25T06:07:42.039Z,86.44
2023-11-25T06:10:04.796Z,86.36
2023-11-25T06:12:27.917Z,86.95
2023-11-25T06:14:53.706Z,86.53
2023-11-25T06:17:15.717Z,87.23
2023-11-25T06:19:37.712Z,87.42
2023-11-25T06:22:00.253Z,87.14
2023-11-25T06:24:22.100Z,87.07
2023-11-25T06:26:45.367Z,87.51
2023-11-25T06:29:08.126Z,87.44
2023-11-25T06:31:30.089Z,87.59
2023-11-25T06:33:53.004Z,87.91
2023-11-25T06:36:15.175Z,87.95
2023-11-25T06:38:37.220Z,87.80
2023-11-25T06:40:59.392Z,87.70
2023-11-25T06:43:21.280Z,87.81
2023-11-25T06:45:45.285Z,87.86
2023-11-25T06:48:08.839Z,87.84
2023-11-25T06:50:30.743Z,87.95
2023-11-25T06:52:52.750Z,87.83
2023-11-25T06:55:15.610Z,87.51
2023-11-25T06:57:37.747Z,86.90
2023-11-25T06:59:59.589Z,87.13
2023-11-25T07:02:21.535Z,87.17
2023-11-25T07:04:44.320Z,86.42
2023-11-25T07:07:06.601Z,87.14
2023-11-25T07:09:28.482Z,86.79
2023-11-25T07:11:50.356Z,86.67
2023-11-25T07:14:12.253Z,86.81
2023-11-25T07:16:34.912Z,86.43
2023-11-25T07:18:56.826Z,85.92
2023-11-25T07:21:18.716Z,86.13
2023-11-25T07:23:40.964Z,86.17
2023-11-25T07:26:02.903Z,86.06
2023-11-25T07:28:25.890Z,85.34
2023-11-25T07:30:49.590Z,84.87
2023-11-25T07:33:11.826Z,84.31
2023-11-25T07:35:33.764Z,84.41
2023-11-25T07:37:55.735Z,84.03
2023-11-25T07:40:17.729Z,83.56
2023-11-25T07:42:47.285Z,82.67
2023-11-25T07:45:10.447Z,82.21
2023-11-25T07:47:32.443Z,81.20
2023-11-25T07:49:54.412Z,79.17
2023-11-25T07:52:16.494Z,77.27
2023-11-25T07:54:39.011Z,75.49
2023-11-25T07:57:01.347Z,74.24
2023-11-25T07:59:23.235Z,73.34
2023-11-25T08:01:46.377Z,72.11
2023-11-25T08:04:08.360Z,70.51
2023-11-25T08:06:30.342Z,67.93
2023-11-25T08:08:55.789Z,66.03
2023-11-25T08:11:28.715Z,66.42
2023-11-25T08:13:51.156Z,66.82
2023-11-25T08:16:13.207Z,68.73
2023-11-25T08:18:35.076Z,71.58
2023-11-25T08:20:57.005Z,73.33
2023-11-25T08:23:18.877Z,74.34
2023-11-25T08:25:40.754Z,77.30
2023-11-25T08:28:03.818Z,77.84
2023-11-25T08:30:25.755Z,78.38
2023-11-25T08:32:47.710Z,79.33
2023-11-25T08:35:10.807Z,78.88
2023-11-25T08:37:36.296Z,79.19
2023-11-25T08:39:58.489Z,78.53
2023-11-25T08:42:20.375Z,78.51
2023-11-25T08:44:46.423Z,78.38
2023-11-25T08:47:08.342Z,78.72
2023-11-25T08:49:30.330Z,78.89
2023-11-25T08:51:52.642Z,78.60
2023-11-25T08:54:15.216Z,78.59
2023-11-25T08:56:41.756Z,79.43
2023-11-25T08:59:06.781Z,79.52
2023-11-25T09:01:40.305Z,79.41
2023-11-25T09:04:02.373Z,79.45
2023-11-25T09:06:24.686Z,78.95
2023-11-25T09:08:46.631Z,79.10
2023-11-25T09:11:08.682Z,78.60
2023-11-25T09:13:33.590Z,78.66
2023-11-25T09:15:55.763Z,79.39
2023-11-25T09:18:19.462Z,78.95
2023-11-25T09:20:41.276Z,78.41
2023-11-25T09:23:03.277Z,78.94
2023-11-25T09:25:25.983Z,79.10
2023-11-25T09:27:48.643Z,78.71
2023-11-25T09:30:12.568Z,78.34
2023-11-25T09:32:35.272Z,79.53
2023-11-25T09:34:59.193Z,79.04
2023-11-25T09:37:21.141Z,79.64
2023-11-25T09:39:43.012Z,79.72
2023-11-25T09:42:05.522Z,79.74
2023-11-25T09:44:28.227Z,79.53
2023-11-25T09:46:51.112Z,79.63
2023-11-25T09:49:13.415Z,80.30
2023-11-25T09:51:35.566Z,79.85
2023-11-25T09:53:58.606Z,79.71
2023-11-25T09:56:20.641Z,80.13
2023-11-25T09:58:42.560Z,79.83
2023-11-25T10:01:11.479Z,80.59
2023-11-25T10:03:40.721Z,80.46
2023-11-25T10:06:03.574Z,79.87
2023-11-25T10:08:25.919Z,80.35
2023-11-25T10:11:06.897Z,79.43
2023-11-25T10:13:40.316Z,79.59
2023-11-25T10:16:04.227Z,80.07
2023-11-25T10:18:26.237Z,79.04
2023-11-25T10:20:49.397Z,79.88
2023-11-25T10:23:11.304Z,80.01
2023-11-25T10:25:35.464Z,80.48
2023-11-25T10:27:57.767Z,79.61
2023-11-25T10:30:21.896Z,80.36
2023-11-25T10:32:44.351Z,79.21
2023-11-25T10:35:07.319Z,78.68
2023-11-25T10:37:32.565Z,79.40
2023-11-25T10:39:54.567Z,79.25
2023-11-25T10:42:18.173Z,78.91
2023-11-25T10:44:40.949Z,78.16
2023-11-25T10:47:03.921Z,77.70
2023-11-25T10:49:27.203Z,76.76
2023-11-25T10:51:56.207Z,75.98
2023-11-25T10:54:18.347Z,75.31
2023-11-25T10:56:41.921Z,75.20
2023-11-25T10:59:04.436Z,74.18
2023-11-25T11:01:32.405Z,74.85
2023-11-25T11:04:34.322Z,75.71
2023-11-25T11:07:00.826Z,75.44
2023-11-25T11:09:30.454Z,75.02
2023-11-25T11:11:57.463Z,75.61
2023-11-25T11:14:23.335Z,77.00
2023-11-25T11:17:25.430Z,76.48
2023-11-25T11:19:52.220Z,76.30
2023-11-25T11:22:14.942Z,76.42
2023-11-25T11:25:05.774Z,76.15
2023-11-25T11:27:56.519Z,76.68
2023-11-25T11:31:09.311Z,77.24
2023-11-25T11:33:31.425Z,77.04
2023-11-25T11:35:53.291Z,77.21
2023-11-25T11:38:26.051Z,75.97
2023-11-25T11:40:47.967Z,77.52
2023-11-25T11:43:15.240Z,76.64
2023-11-25T11:45:37.345Z,76.39
2023-11-25T11:48:04.788Z,76.64
2023-11-25T11:50:34.328Z,76.65
2023-11-25T11:53:04.926Z,75.79
2023-11-25T11:55:54.146Z,76.71
2023-11-25T11:58:18.130Z,76.01
2023-11-25T12:00:47.824Z,75.88
2023-11-25T12:03:10.576Z,75.67
2023-11-25T12:05:32.689Z,75.17
2023-11-25T12:07:54.712Z,75.04
2023-11-25T12:10:16.632Z,74.79
2023-11-25T12:12:42.503Z,75.75
2023-11-25T12:15:07.431Z,75.49
2023-11-25T12:17:29.389Z,75.80
2023-11-25T12:19:54.182Z,75.32
2023-11-25T12:22:16.728Z,76.15
2023-11-25T12:24:41.895Z,75.68
2023-11-25T12:27:06.667Z,75.86
2023-11-25T12:29:28.533Z,74.99
2023-11-25T12:31:50.637Z,75.21
2023-11-25T12:34:12.813Z,75.27
2023-11-25T12:36:34.865Z,76.01
2023-11-25T12:38:56.807Z,76.09
2023-11-25T12:41:19.871Z,76.31
2023-11-25T12:44:10.648Z,76.73
2023-11-25T12:46:33.228Z,77.30
2023-11-25T12:48:58.568Z,76.46
2023-11-25T12:51:20.508Z,76.99
2023-11-25T12:53:55.159Z,76.67
2023-11-25T12:56:18.423Z,75.98
2023-11-25T12:58:44.733Z,75.97
2023-11-25T13:01:10.838Z,76.22
2023-11-25T13:03:33.267Z,75.14
2023-11-25T13:06:12.051Z,76.14
2023-11-25T13:08:38.392Z,75.88
2023-11-25T13:11:05.006Z,76.07
2023-11-25T13:13:30.260Z,76.28
2023-11-25T13:15:55.683Z,75.77
2023-11-25T13:18:17.615Z,77.53
2023-11-25T13:20:41.340Z,77.74
2023-11-25T13:23:03.286Z,78.78
2023-11-25T13:25:26.400Z,77.94
2023-11-25T13:27:48.963Z,78.19
2023-11-25T13:30:11.998Z,78.73
2023-11-25T13:32:35.178Z,78.32
2023-11-25T13:34:57.201Z,78.20
2023-11-25T13:37:19.104Z,79.67
2023-11-25T13:39:41.020Z,79.60
2023-11-25T13:42:05.783Z,79.03
2023-11-25T13:44:28.607Z,79.91
2023-11-25T13:46:50.640Z,80.41
2023-11-25T13:49:13.573Z,80.26
2023-11-25T13:51:35.796Z,79.99
2023-11-25T13:54:00.442Z,80.57
2023-11-25T13:56:22.400Z,79.78
2023-11-25T13:58:44.289Z,80.83
2023-11-25T14:01:07.207Z,80.06
2023-11-25T14:03:29.426Z,80.50
2023-11-25T14:05:51.458Z,81.18
2023-11-25T14:08:16.987Z,80.31
2023-11-25T14:10:39.582Z,80.21
2023-11-25T14:13:01.601Z,80.97
2023-11-25T14:15:23.603Z,79.95
2023-11-25T14:17:45.749Z,80.74
2023-11-25T14:20:17.649Z,80.31
2023-11-25T14:22:39.597Z,79.82
2023-11-25T14:25:01.525Z,79.40
2023-11-25T14:27:23.349Z,79.71
2023-11-25T14:29:45.564Z,80.17
2023-11-25T14:32:07.762Z,79.33
2023-11-25T14:34:29.866Z,79.04
2023-11-25T14:36:52.140Z,78.75
2023-11-25T14:39:19.327Z,78.61
2023-11-25T14:41:41.246Z,78.15
2023-11-25T14:44:03.138Z,78.87
2023-11-25T14:46:25.172Z,79.10
2023-11-25T14:48:47.061Z,78.01
2023-11-25T14:51:08.922Z,77.41
2023-11-25T14:53:30.859Z,77.59
2023-11-25T14:55:52.861Z,77.05
2023-11-25T14:58:14.727Z,76.92
2023-11-25T15:00:36.580Z,77.47
2023-11-25T15:03:00.420Z,76.50
2023-11-25T15:05:22.478Z,77.00
2023-11-25T15:07:45.020Z,76.85
2023-11-25T15:10:10.856Z,76.55
2023-11-25T15:12:32.757Z,75.44
2023-11-25T15:14:55.894Z,75.06
2023-11-25T15:17:18.026Z,75.38
2023-11-25T15:19:42.281Z,75.63
2023-11-25T15:22:05.220Z,74.68
2023-11-25T15:24:27.418Z,75.03
2023-11-25T15:26:49.272Z,73.88
2023-11-25T15:29:14.882Z,74.53
2023-11-25T15:31:36.790Z,74.50
2023-11-25T15:33:58.745Z,76.04
2023-11-25T15:36:20.816Z,75.93
2023-11-25T15:38:43.286Z,75.92
2023-11-25T15:41:08.094Z,76.90
2023-11-25T15:43:30.944Z,77.18
2023-11-25T15:45:54.354Z,76.48
2023-11-25T15:48:16.307Z,76.52
2023-11-25T15:50:40.188Z,77.75
2023-11-25T15:53:03.493Z,77.24
2023-11-25T15:55:25.441Z,76.96
2023-11-25T15:57:47.376Z,77.85
2023-11-25T16:00:14.938Z,77.91
2023-11-25T16:02:37.287Z,77.17
2023-11-25T16:04:59.263Z,76.89
2023-11-25T16:07:22.218Z,78.17
2023-11-25T16:09:45.358Z,78.32
2023-11-25T16:12:07.716Z,77.50
2023-11-25T16:14:29.576Z,77.87
2023-11-25T16:16:51.493Z,77.10
2023-11-25T16:19:13.354Z,75.63
2023-11-25T16:21:37.840Z,75.86
2023-11-25T16:24:01.197Z,76.57
2023-11-25T16:26:23.129Z,75.59
2023-11-25T16:28:45.056Z,76.02
2023-11-25T16:31:10.458Z,76.10
2023-11-25T16:33:33.030Z,75.19
2023-11-25T16:35:54.983Z,75.37
2023-11-25T16:38:19.694Z,76.31
2023-11-25T16:40:41.776Z,76.45
2023-11-25T16:43:04.699Z,75.77
2023-11-25T16:45:26.637Z,75.61
2023-11-25T16:47:48.692Z,76.30
2023-11-25T16:50:10.758Z,75.93
2023-11-25T16:52:32.672Z,76.49
2023-11-25T16:54:54.603Z,75.51
2023-11-25T16:57:16.796Z,75.42
2023-11-25T16:59:39.548Z,75.75
2023-11-25T17:02:02.400Z,76.49
2023-11-25T17:04:24.900Z,76.64
2023-11-25T17:06:46.862Z,76.02
2023-11-25T17:09:09.493Z,76.51
2023-11-25T17:11:31.393Z,77.11
2023-11-25T17:13:54.184Z,76.77
2023-11-25T17:16:20.877Z,77.33
2023-11-25T17:18:42.730Z,78.00
2023-11-25T17:21:04.823Z,77.50
2023-11-25T17:23:26.699Z,77.29
2023-11-25T17:25:48.630Z,78.29
2023-11-25T17:28:10.564Z,78.43
2023-11-25T17:30:36.193Z,77.84
2023-11-25T17:32:58.876Z,77.79
2023-11-25T17:35:21.931Z,78.13
2023-11-25T17:37:44.467Z,77.58
2023-11-25T17:40:07.012Z,78.14
2023-11-25T17:42:29.182Z,78.31
2023-11-25T17:44:51.430Z,78.66
2023-11-25T17:47:14.249Z,78.21
2023-11-25T17:49:36.136Z,78.47
2023-11-25T17:51:58.144Z,79.51
2023-11-25T17:54:20.040Z,79.41
2023-11-25T17:56:42.268Z,79.42
2023-11-25T17:59:04.258Z,79.41
2023-11-25T18:01:26.187Z,79.09
2023-11-25T18:03:48.410Z,79.59
2023-11-25T18:06:12.152Z,79.48
2023-11-25T18:08:34.132Z,80.32
2023-11-25T18:10:56.018Z,79.48
2023-11-25T18:13:17.966Z,79.71
2023-11-25T18:15:39.871Z,80.31
2023-11-25T18:18:01.881Z,79.29
2023-11-25T18:20:23.957Z,79.33
2023-11-25T18:22:45.809Z,79.54
2023-11-25T18:25:10.122Z,79.59
2023-11-25T18:27:31.970Z,80.12
2023-11-25T18:29:54.413Z,80.77
2023-11-25T18:32:17.575Z,80.11
2023-11-25T18:34:39.722Z,81.55
2023-11-25T18:37:02.047Z,82.34
2023-11-25T18:39:24.865Z,82.43
2023-11-25T18:41:46.920Z,83.07
2023-11-25T18:44:10.231Z,83.46
2023-11-25T18:46:32.437Z,83.22
2023-11-25T18:48:54.383Z,84.81
2023-11-25T18:51:16.375Z,84.64
2023-11-25T18:53:38.328Z,86.49
2023-11-25T18:56:01.200Z,86.65
2023-11-25T18:58:23.519Z,87.55
2023-11-25T19:00:45.421Z,88.54
2023-11-25T19:03:08.713Z,88.34
2023-11-25T19:05:30.611Z,88.90
2023-11-25T19:07:52.616Z,88.86
2023-11-25T19:10:17.615Z,89.60
2023-11-25T19:12:39.785Z,89.48
2023-11-25T19:15:02.376Z,90.75
2023-11-25T19:17:24.352Z,90.26
2023-11-25T19:19:46.615Z,89.60
2023-11-25T19:22:11.582Z,90.33
2023-11-25T19:24:33.870Z,89.62
2023-11-25T19:26:55.743Z,88.80
2023-11-25T19:29:17.719Z,89.13
2023-11-25T19:31:39.658Z,89.06
2023-11-25T19:34:01.707Z,89.27
2023-11-25T19:36:23.668Z,88.20
2023-11-25T19:38:46.405Z,88.08
2023-11-25T19:41:08.643Z,89.05
2023-11-25T19:43:30.728Z,89.04
2023-11-25T19:45:52.573Z,89.89
2023-11-25T19:48:14.630Z,89.70
2023-11-25T19:50:37.612Z,89.08
2023-11-25T19:52:59.615Z,88.96
2023-11-25T19:55:21.601Z,88.65
2023-11-25T19:57:43.425Z,88.61
2023-11-25T20:00:10.601Z,87.89
2023-11-25T20:02:32.707Z,88.00
2023-11-25T20:04:55.216Z,88.04
2023-11-25T20:07:17.531Z,87.48
2023-11-25T20:09:39.442Z,88.03
2023-11-25T20:12:01.349Z,86.23
2023-11-25T20:14:26.289Z,86.76
2023-11-25T20:16:48.342Z,87.19
2023-11-25T20:19:13.310Z,85.84
2023-11-25T20:21:35.647Z,86.38
2023-11-25T20:23:58.520Z,85.86
2023-11-25T20:26:22.573Z,86.64
2023-11-25T20:28:44.602Z,87.27
2023-11-25T20:31:06.618Z,89.31
2023-11-25T20:33:28.566Z,89.63
2023-11-25T20:35:50.841Z,92.04
2023-11-25T20:38:12.765Z,92.32
2023-11-25T20:40:34.872Z,93.55
2023-11-25T20:42:56.806Z,94.72
2023-11-25T20:45:19.634Z,93.89
2023-11-25T20:47:41.577Z,94.49
2023-11-25T20:50:03.718Z,94.08
2023-11-25T20:52:25.629Z,94.99
2023-11-25T20:54:47.542Z,95.14
2023-11-25T20:57:14.337Z,95.74
2023-11-25T20:59:36.205Z,95.83
2023-11-25T21:01:58.213Z,95.30
2023-11-25T21:04:20.247Z,94.91
2023-11-25T21:06:42.246Z,95.79
2023-11-25T21:09:04.328Z,95.93
2023-11-25T21:11:26.325Z,95.53
2023-11-25T21:13:48.459Z,96.12
2023-11-25T21:16:12.684Z,95.52
2023-11-25T21:18:39.304Z,95.39
2023-11-25T21:21:08.166Z,94.96
2023-11-25T21:23:30.042Z,94.01
2023-11-25T21:25:52.193Z,93.82
2023-11-25T21:28:14.705Z,94.11
2023-11-25T21:30:36.756Z,94.83
2023-11-25T21:32:58.756Z,95.27
2023-11-25T21:35:20.784Z,96.00
2023-11-25T21:37:43.990Z,96.55
2023-11-25T21:40:20.231Z,96.92
2023-11-25T21:42:45.285Z,97.34
2023-11-25T21:45:08.890Z,97.67
2023-11-25T21:47:31.166Z,97.80
2023-11-25T21:49:53.170Z,98.53
2023-11-25T21:52:15.055Z,98.32
2023-11-25T21:54:38.715Z,98.33
2023-11-25T21:57:00.891Z,98.76
2023-11-25T21:59:22.846Z,97.99
2023-11-25T22:01:45.925Z,98.04
2023-11-25T22:04:07.920Z,98.39
2023-11-25T22:06:29.995Z,98.59
2023-11-25T22:08:52.018Z,98.46
2023-11-25T22:11:13.967Z,98.18
2023-11-25T22:13:35.886Z,97.85
2023-11-25T22:15:58.225Z,98.46
2023-11-25T22:18:20.665Z,97.89
2023-11-25T22:20:42.657Z,97.52
2023-11-25T22:23:04.782Z,97.42
2023-11-25T22:25:35.474Z,96.88
2023-11-25T22:27:57.552Z,96.43
2023-11-25T22:30:19.414Z,95.81
2023-11-25T22:32:41.392Z,95.79
2023-11-25T22:35:03.617Z,94.64
2023-11-25T22:37:28.060Z,94.20
2023-11-25T22:39:49.936Z,94.15
2023-11-25T22:42:11.878Z,93.72
2023-11-25T22:44:33.937Z,93.24
2023-11-25T22:46:56.421Z,92.97
2023-11-25T22:49:18.279Z,92.94
2023-11-25T22:51:40.156Z,93.22
2023-11-25T22:54:02.137Z,93.05
2023-11-25T22:56:24.207Z,92.98
2023-11-25T22:58:47.288Z,93.67
2023-11-25T23:01:19.773Z,93.27
2023-11-25T23:03:41.847Z,93.74
2023-11-25T23:06:08.702Z,93.65
2023-11-25T23:08:31.610Z,93.91
2023-11-25T23:10:53.699Z,93.86
2023-11-25T23:13:15.611Z,93.19
2023-11-25T23:15:37.681Z,93.54
2023-11-25T23:18:01.849Z,93.09
2023-11-25T23:20:24.186Z,92.93
2023-11-25T23:22:46.119Z,92.53
2023-11-25T23:25:09.045Z,92.22
2023-11-25T23:27:31.952Z,91.79
2023-11-25T23:29:53.816Z,91.97
2023-11-25T23:32:15.989Z,92.16
2023-11-25T23:34:38.210Z,92.09
2023-11-25T23:37:00.225Z,91.95
2023-11-25T23:39:22.043Z,91.95
2023-11-25T23:41:43.890Z,91.51
2023-11-25T23:44:05.952Z,91.50
2023-11-25T23:46:27.905Z,91.09
2023-11-25T23:48:49.836Z,91.79
2023-11-25T23:51:11.715Z,92.26
2023-11-25T23:53:33.732Z,92.74
2023-11-25T23:55:55.924Z,93.22
2023-11-25T23:58:17.958Z,93.70
